Time;durP1;ratioP1;P1;durP2;ratioP2;P2;SDS_P1;SDS_P2;PMS_P1;PMS_P2;Temp;Humidity;BMP_temperature;BMP_pressure;BME280_temperature;BME280_humidity;BME280_pressure;Samples;Min_cycle;Max_cycle;Signal;HPM_P1;HPM_P2
2023/09/03 00:01:56;;;;;;;0.60;0.60;;;20.10;99.90;;;;;;5012135;28;20034;-79
2023/09/03 00:04:22;;;;;;;0.30;0.30;;;20.00;99.90;;;;;;5012165;28;20406;-79
2023/09/03 00:06:47;;;;;;;0.00;0.00;;;19.70;99.90;;;;;;5012385;28;20018;-79
2023/09/03 00:09:13;;;;;;;0.30;0.30;;;19.90;99.90;;;;;;5012029;28;20041;-79
2023/09/03 00:11:39;;;;;;;0.00;0.00;;;19.80;99.90;;;;;;5012330;28;20435;-79
2023/09/03 00:14:05;;;;;;;0.00;0.00;;;19.80;99.90;;;;;;5012094;28;20048;-79
2023/09/03 00:16:31;;;;;;;0.00;0.00;;;19.90;99.90;;;;;;5010724;28;20030;-79
2023/09/03 00:18:56;;;;;;;0.52;0.13;;;19.90;99.90;;;;;;5010660;28;20034;-79
2023/09/03 00:21:22;;;;;;;0.10;0.10;;;19.80;99.90;;;;;;5012005;28;20034;-79
2023/09/03 00:23:50;;;;;;;0.00;0.00;;;19.60;99.90;;;;;;5012097;28;20087;-79
2023/09/03 00:26:18;;;;;;;0.00;0.00;;;19.60;99.90;;;;;;5012034;28;20125;-79
2023/09/03 00:28:48;;;;;;;0.10;0.10;;;19.70;99.90;;;;;;5011895;28;20078;-80
2023/09/03 00:31:14;;;;;;;0.00;0.00;;;19.80;99.90;;;;;;5010449;28;20038;-79
2023/09/03 00:33:40;;;;;;;1.35;0.52;;;19.70;99.90;;;;;;5011846;28;20033;-79
2023/09/03 00:36:10;;;;;;;0.00;0.00;;;19.70;99.90;;;;;;5012041;28;20143;-79
2023/09/03 00:38:36;;;;;;;0.00;0.00;;;19.70;99.90;;;;;;5011469;28;20033;-79
2023/09/03 00:41:04;;;;;;;0.00;0.00;;;19.70;99.90;;;;;;5011985;28;20026;-78
2023/09/03 00:43:31;;;;;;;1.75;1.45;;;19.40;99.90;;;;;;5010589;28;20045;-78
2023/09/03 00:46:01;;;;;;;0.80;0.22;;;19.40;99.90;;;;;;5011336;28;20029;-79
2023/09/03 00:48:28;;;;;;;0.00;0.00;;;19.30;99.90;;;;;;5012192;28;20018;-79
2023/09/03 00:50:58;;;;;;;0.00;0.00;;;19.30;99.90;;;;;;5011485;28;20037;-78
2023/09/03 00:53:25;;;;;;;0.10;0.10;;;19.30;99.90;;;;;;5010603;28;20030;-79
2023/09/03 00:55:52;;;;;;;0.00;0.00;;;19.30;99.90;;;;;;5010228;28;20018;-79
2023/09/03 00:58:18;;;;;;;0.03;0.03;;;19.20;99.90;;;;;;5011489;28;20483;-79
2023/09/03 01:00:44;;;;;;;0.00;0.00;;;19.20;99.90;;;;;;5009675;28;20417;-79
2023/09/03 01:03:10;;;;;;;0.00;0.00;;;19.40;99.90;;;;;;5011634;28;20021;-79
2023/09/03 01:05:36;;;;;;;0.20;0.20;;;19.40;99.90;;;;;;5009945;28;20554;-76
2023/09/03 01:08:02;;;;;;;0.10;0.10;;;19.30;99.90;;;;;;5011236;28;20075;-78
2023/09/03 01:11:16;;;;;;;0.00;0.00;;;19.30;99.90;;;;;;5011429;28;20363;-78
2023/09/03 01:13:42;;;;;;;0.00;0.00;;;19.20;99.90;;;;;;5042219;28;20032;-78
2023/09/03 01:16:17;;;;;;;0.00;0.00;;;19.30;99.90;;;;;;5034493;28;20028;-78
2023/09/03 01:18:45;;;;;;;0.60;0.40;;;19.20;99.90;;;;;;5027727;28;20533;-78
2023/09/03 01:21:31;;;;;;;0.75;0.75;;;19.20;99.90;;;;;;5009341;28;20483;-79
2023/09/03 01:24:25;;;;;;;0.25;0.25;;;19.20;99.90;;;;;;4997610;28;20025;-78
2023/09/03 01:27:17;;;;;;;0.10;0.10;;;19.10;99.90;;;;;;5008877;28;20586;-79
2023/09/03 01:29:44;;;;;;;;;;;19.10;99.90;;;;;;5008908;28;20069;-78
2023/09/03 01:32:11;;;;;;;0.00;0.00;;;19.10;99.90;;;;;;5011010;28;20338;-78
2023/09/03 01:34:39;;;;;;;0.00;0.00;;;19.20;99.90;;;;;;5009147;28;20028;-79
2023/09/03 01:37:05;;;;;;;0.00;0.00;;;19.20;99.90;;;;;;5010735;28;20381;-79
2023/09/03 01:39:31;;;;;;;0.03;0.03;;;19.10;99.90;;;;;;5009900;28;20076;-79
2023/09/03 01:41:57;;;;;;;0.00;0.00;;;19.00;99.90;;;;;;5010791;28;20473;-77
2023/09/03 01:44:23;;;;;;;0.00;0.00;;;19.00;99.90;;;;;;5010568;28;20034;-78
2023/09/03 01:46:51;;;;;;;0.00;0.00;;;19.00;99.90;;;;;;5009423;28;20030;-78
2023/09/03 01:49:26;;;;;;;0.00;0.00;;;19.10;99.90;;;;;;5009543;28;20018;-78
2023/09/03 01:52:22;;;;;;;0.00;0.00;;;19.00;99.90;;;;;;5010687;28;20490;-78
2023/09/03 01:54:51;;;;;;;0.00;0.00;;;19.10;99.90;;;;;;4999158;28;20041;-78
2023/09/03 01:57:27;;;;;;;0.00;0.00;;;18.90;99.90;;;;;;5008855;28;20045;-78
2023/09/03 01:59:56;;;;;;;0.10;0.10;;;18.90;99.90;;;;;;5009231;28;20073;-78
2023/09/03 02:02:24;;;;;;;0.00;0.00;;;18.90;99.90;;;;;;5009239;28;20034;-79
2023/09/03 02:04:51;;;;;;;0.00;0.00;;;18.70;99.90;;;;;;5010699;28;20475;-77
2023/09/03 02:07:17;;;;;;;0.00;0.00;;;18.80;99.90;;;;;;5010428;28;20026;-78
2023/09/03 02:09:42;;;;;;;0.00;0.00;;;18.80;99.90;;;;;;5010503;28;20121;-77
2023/09/03 02:12:09;;;;;;;0.05;0.05;;;18.70;99.90;;;;;;5008733;28;20420;-78
2023/09/03 02:14:35;;;;;;;0.00;0.00;;;18.80;99.90;;;;;;5010961;28;20155;-77
2023/09/03 02:17:01;;;;;;;0.03;0.03;;;18.80;99.90;;;;;;5010461;28;20045;-78
2023/09/03 02:19:27;;;;;;;0.03;0.03;;;18.70;99.90;;;;;;5010442;28;20431;-78
2023/09/03 02:21:52;;;;;;;0.00;0.00;;;18.60;99.90;;;;;;5010081;28;20476;-78
2023/09/03 02:24:18;;;;;;;0.00;0.00;;;18.50;99.90;;;;;;5010336;28;20030;-78
2023/09/03 02:26:46;;;;;;;0.10;0.10;;;18.40;99.90;;;;;;5009863;28;20394;-78
2023/09/03 02:29:12;;;;;;;0.15;0.15;;;18.50;99.90;;;;;;5008989;28;20026;-77
2023/09/03 02:31:39;;;;;;;0.05;0.05;;;18.60;99.90;;;;;;5010213;28;20501;-78
2023/09/03 02:34:06;;;;;;;0.80;0.77;;;18.60;99.90;;;;;;5008970;28;20018;-77
2023/09/03 02:36:34;;;;;;;0.15;0.15;;;18.40;99.90;;;;;;4992774;28;20065;-77
2023/09/03 02:39:01;;;;;;;0.10;0.10;;;18.40;99.90;;;;;;5008983;28;20050;-78
2023/09/03 02:41:29;;;;;;;0.00;0.00;;;18.20;99.90;;;;;;5008581;28;20040;-77
2023/09/03 02:43:57;;;;;;;0.10;0.10;;;18.10;99.90;;;;;;5010079;28;20018;-77
2023/09/03 02:46:23;;;;;;;0.00;0.00;;;18.10;99.90;;;;;;5012547;28;20075;-79
2023/09/03 02:48:50;;;;;;;0.00;0.00;;;18.30;99.90;;;;;;5012788;28;20030;-77
2023/09/03 02:51:16;;;;;;;0.22;0.22;;;18.20;99.90;;;;;;5012638;28;20075;-76
2023/09/03 02:53:43;;;;;;;1.05;1.05;;;18.20;99.90;;;;;;4996587;28;20026;-77
2023/09/03 02:56:10;;;;;;;0.05;0.05;;;18.10;99.90;;;;;;5012525;28;20018;-76
2023/09/03 02:58:38;;;;;;;0.00;0.00;;;18.10;99.90;;;;;;5013938;28;20022;-77
2023/09/03 03:01:12;;;;;;;0.08;0.08;;;18.10;99.90;;;;;;5013398;28;20149;-78
2023/09/03 03:03:40;;;;;;;0.28;0.28;;;18.10;99.90;;;;;;5013229;28;20409;-78
2023/09/03 03:06:05;;;;;;;0.10;0.10;;;18.10;99.90;;;;;;5014013;28;20038;-78
2023/09/03 03:08:31;;;;;;;0.00;0.00;;;18.20;99.90;;;;;;5013216;28;20033;-79
2023/09/03 03:11:14;;;;;;;0.30;0.30;;;18.00;99.90;;;;;;5011743;28;20030;-78
2023/09/03 03:13:47;;;;;;;0.00;0.00;;;18.20;99.90;;;;;;5011848;28;20019;-78
2023/09/03 03:16:15;;;;;;;0.55;0.55;;;18.30;99.90;;;;;;5012911;28;20086;-77
2023/09/03 03:18:47;;;;;;;0.00;0.00;;;18.10;99.90;;;;;;5011837;28;20036;-78
2023/09/03 03:21:19;;;;;;;0.00;0.00;;;18.30;99.90;;;;;;5011627;28;20060;-78
2023/09/03 03:23:48;;;;;;;0.10;0.10;;;18.40;99.90;;;;;;5011600;28;20054;-78
2023/09/03 03:26:14;;;;;;;0.00;0.00;;;18.20;99.90;;;;;;5011682;28;20512;-77
2023/09/03 03:28:40;;;;;;;0.10;0.10;;;18.10;99.90;;;;;;5011723;28;20508;-78
2023/09/03 03:31:09;;;;;;;0.20;0.20;;;18.00;99.90;;;;;;5011625;28;20026;-78
2023/09/03 03:33:35;;;;;;;0.10;0.10;;;18.00;99.90;;;;;;5011511;28;20030;-78
2023/09/03 03:36:02;;;;;;;0.00;0.00;;;18.10;99.90;;;;;;5011688;28;20112;-78
2023/09/03 03:38:28;;;;;;;0.00;0.00;;;18.10;99.90;;;;;;5011226;28;20026;-78
2023/09/03 03:41:03;;;;;;;0.00;0.00;;;17.90;99.90;;;;;;5012762;28;20454;-77
2023/09/03 03:43:28;;;;;;;0.00;0.00;;;17.90;99.90;;;;;;5011260;28;20112;-77
2023/09/03 03:45:57;;;;;;;0.00;0.00;;;17.90;99.90;;;;;;5011563;28;20129;-77
2023/09/03 03:48:23;;;;;;;0.00;0.00;;;17.90;99.90;;;;;;5011368;28;20030;-78
2023/09/03 03:50:54;;;;;;;0.10;0.10;;;17.70;99.90;;;;;;5011610;28;20022;-78
2023/09/03 03:53:20;;;;;;;0.07;0.07;;;17.80;99.90;;;;;;5010630;28;20041;-77
2023/09/03 03:55:46;;;;;;;0.00;0.00;;;17.80;99.90;;;;;;5008146;28;20015;-78
2023/09/03 03:58:12;;;;;;;0.00;0.00;;;17.90;99.90;;;;;;5004716;28;20026;-77
2023/09/03 04:00:38;;;;;;;0.10;0.10;;;17.90;99.90;;;;;;5012349;28;20054;-78
2023/09/03 04:03:04;;;;;;;0.00;0.00;;;17.70;99.90;;;;;;5012324;28;20403;-78
2023/09/03 04:05:30;;;;;;;0.00;0.00;;;17.70;99.90;;;;;;5012039;28;20117;-78
2023/09/03 04:07:58;;;;;;;0.00;0.00;;;17.70;99.90;;;;;;5010426;28;20021;-78
2023/09/03 04:10:24;;;;;;;0.00;0.00;;;17.60;99.90;;;;;;5011029;28;20061;-78
2023/09/03 04:12:50;;;;;;;0.00;0.00;;;17.60;99.90;;;;;;5012438;28;20045;-78
2023/09/03 04:15:17;;;;;;;0.00;0.00;;;17.60;99.90;;;;;;5010806;28;20046;-78
2023/09/03 04:17:43;;;;;;;4.38;2.08;;;17.50;99.90;;;;;;5011947;28;20014;-78
2023/09/03 04:20:09;;;;;;;0.00;0.00;;;17.50;99.90;;;;;;5010918;28;20040;-78
2023/09/03 04:22:37;;;;;;;0.20;0.20;;;17.60;99.90;;;;;;5010599;28;20495;-78
2023/09/03 04:25:04;;;;;;;0.00;0.00;;;17.70;99.90;;;;;;5011923;28;20037;-78
2023/09/03 04:27:29;;;;;;;3.10;0.60;;;17.60;99.90;;;;;;4994170;28;20029;-78
2023/09/03 04:29:56;;;;;;;0.00;0.00;;;17.30;99.90;;;;;;5010568;28;20069;-78
2023/09/03 04:32:22;;;;;;;0.00;0.00;;;17.20;99.90;;;;;;5010722;28;20026;-78
2023/09/03 04:34:48;;;;;;;0.00;0.00;;;17.10;99.90;;;;;;5010606;28;20615;-78
2023/09/03 04:37:13;;;;;;;0.00;0.00;;;17.30;99.90;;;;;;5011686;28;20033;-78
2023/09/03 04:39:39;;;;;;;1.27;0.40;;;17.30;99.90;;;;;;5010269;28;20026;-78
2023/09/03 04:42:06;;;;;;;0.00;0.00;;;17.40;99.90;;;;;;5011920;28;20022;-78
2023/09/03 04:44:32;;;;;;;0.20;0.20;;;17.40;99.90;;;;;;5010170;28;20436;-78
2023/09/03 04:46:57;;;;;;;0.00;0.00;;;17.50;99.90;;;;;;5010573;28;20037;-78
2023/09/03 04:49:23;;;;;;;0.00;0.00;;;17.50;99.90;;;;;;5010541;28;20359;-78
2023/09/03 04:51:49;;;;;;;0.57;0.57;;;17.60;99.90;;;;;;5010061;28;20025;-78
2023/09/03 04:54:15;;;;;;;0.00;0.00;;;17.60;99.90;;;;;;5010577;28;20678;-78
2023/09/03 04:56:41;;;;;;;5.47;1.08;;;17.50;99.90;;;;;;4990683;28;20091;-78
2023/09/03 04:59:08;;;;;;;0.10;0.10;;;17.40;99.90;;;;;;5009722;28;20129;-77
2023/09/03 05:01:35;;;;;;;0.00;0.00;;;17.30;99.90;;;;;;4993774;28;20030;-78
2023/09/03 05:04:03;;;;;;;0.00;0.00;;;17.30;99.90;;;;;;5061167;28;20033;-77
2023/09/03 05:06:29;;;;;;;0.08;0.08;;;17.30;99.90;;;;;;5009402;28;20119;-77
2023/09/03 05:08:57;;;;;;;0.00;0.00;;;17.40;99.90;;;;;;5008666;28;20021;-77
2023/09/03 05:11:25;;;;;;;0.08;0.08;;;17.40;99.90;;;;;;5009803;28;20037;-77
2023/09/03 05:13:51;;;;;;;0.00;0.00;;;17.40;99.90;;;;;;5010078;28;20026;-78
2023/09/03 05:16:18;;;;;;;0.00;0.00;;;17.50;99.90;;;;;;4992334;28;20022;-78
2023/09/03 05:18:44;;;;;;;0.00;0.00;;;17.50;99.90;;;;;;5003537;28;20041;-78
2023/09/03 05:21:10;;;;;;;0.10;0.10;;;17.50;99.90;;;;;;5009343;28;20387;-78
2023/09/03 05:23:37;;;;;;;0.00;0.00;;;17.50;99.90;;;;;;5011204;28;20037;-78
2023/09/03 05:26:03;;;;;;;1.13;0.15;;;17.40;99.90;;;;;;5009382;28;20386;-77
2023/09/03 05:28:29;;;;;;;1.00;1.00;;;17.50;99.90;;;;;;5009840;28;20034;-78
2023/09/03 05:30:55;;;;;;;3.53;1.73;;;17.40;99.90;;;;;;5009612;28;20022;-78
2023/09/03 05:33:21;;;;;;;0.00;0.00;;;17.50;99.90;;;;;;5009631;28;20026;-77
2023/09/03 05:35:47;;;;;;;0.00;0.00;;;17.50;99.90;;;;;;5010723;28;20028;-78
2023/09/03 05:38:13;;;;;;;0.00;0.00;;;17.60;99.90;;;;;;4993358;28;20113;-77
2023/09/03 05:40:41;;;;;;;0.00;0.00;;;17.70;99.90;;;;;;5009353;28;20484;-77
2023/09/03 05:43:08;;;;;;;0.00;0.00;;;17.70;99.90;;;;;;5009589;28;20432;-78
2023/09/03 05:45:34;;;;;;;0.10;0.10;;;17.60;99.90;;;;;;5001054;28;20042;-77
2023/09/03 05:48:00;;;;;;;0.00;0.00;;;17.70;99.90;;;;;;5005643;28;20040;-78
2023/09/03 05:50:31;;;;;;;0.00;0.00;;;17.70;99.90;;;;;;5009158;28;20078;-75
2023/09/03 05:52:57;;;;;;;0.08;0.08;;;17.80;99.90;;;;;;5009419;28;20079;-77
2023/09/03 05:55:23;;;;;;;0.00;0.00;;;17.90;99.90;;;;;;5009177;28;20030;-77
2023/09/03 05:57:52;;;;;;;0.00;0.00;;;17.80;99.90;;;;;;5010564;28;20087;-78
2023/09/03 06:00:18;;;;;;;0.00;0.00;;;17.90;99.90;;;;;;5009223;28;20470;-78
2023/09/03 06:02:49;;;;;;;0.00;0.00;;;17.80;99.90;;;;;;5021929;28;20033;-77
2023/09/03 06:05:17;;;;;;;0.00;0.00;;;17.90;99.90;;;;;;5031710;28;20038;-77
2023/09/03 06:07:42;;;;;;;0.00;0.00;;;18.00;99.90;;;;;;5014304;28;20029;-76
2023/09/03 06:10:09;;;;;;;0.00;0.00;;;18.00;99.90;;;;;;5051351;28;20475;-77
2023/09/03 06:12:35;;;;;;;0.00;0.00;;;18.10;99.90;;;;;;5052674;28;20067;-77
2023/09/03 06:15:02;;;;;;;0.00;0.00;;;18.20;99.90;;;;;;5033443;28;20079;-77
2023/09/03 06:17:27;;;;;;;0.05;0.05;;;18.20;99.90;;;;;;5031795;28;20018;-76
2023/09/03 06:19:53;;;;;;;0.00;0.00;;;18.20;99.90;;;;;;5015584;28;20526;-73
2023/09/03 06:22:19;;;;;;;0.52;0.52;;;18.20;99.90;;;;;;5051209;28;20076;-77
2023/09/03 06:24:45;;;;;;;0.10;0.10;;;18.10;99.90;;;;;;5041745;28;20503;-75
2023/09/03 06:27:10;;;;;;;0.10;0.10;;;18.20;99.90;;;;;;5029185;28;20105;-77
2023/09/03 06:29:36;;;;;;;0.00;0.00;;;18.40;99.90;;;;;;5018292;28;20020;-77
2023/09/03 06:32:02;;;;;;;0.20;0.20;;;18.60;99.90;;;;;;5027601;28;20386;-76
2023/09/03 06:34:28;;;;;;;0.10;0.10;;;18.40;99.90;;;;;;5022980;28;20064;-77
2023/09/03 06:36:53;;;;;;;0.00;0.00;;;18.40;99.90;;;;;;5013168;28;20026;-75
2023/09/03 06:39:19;;;;;;;0.00;0.00;;;18.70;99.90;;;;;;5026089;28;20018;-72
2023/09/03 06:41:45;;;;;;;0.00;0.00;;;18.70;99.90;;;;;;5033215;28;20484;-77
2023/09/03 06:44:15;;;;;;;0.10;0.10;;;18.70;99.90;;;;;;5020605;28;20034;-73
2023/09/03 06:46:40;;;;;;;0.25;0.25;;;18.90;99.90;;;;;;5009353;28;20094;-75
2023/09/03 06:49:06;;;;;;;0.10;0.10;;;19.00;99.90;;;;;;5033184;28;20462;-75
2023/09/03 06:51:32;;;;;;;0.00;0.00;;;19.00;99.90;;;;;;5035232;28;20477;-75
2023/09/03 06:53:59;;;;;;;0.30;0.28;;;18.70;99.90;;;;;;5074261;28;20502;-76
2023/09/03 06:56:25;;;;;;;0.00;0.00;;;18.70;99.90;;;;;;5056394;28;20395;-76
2023/09/03 06:58:50;;;;;;;0.73;0.73;;;19.10;99.90;;;;;;5075296;28;20131;-77
2023/09/03 07:01:17;;;;;;;0.03;0.03;;;19.10;99.90;;;;;;5053321;28;20523;-76
2023/09/03 07:03:43;;;;;;;0.00;0.00;;;19.20;99.90;;;;;;5036383;28;20396;-77
2023/09/03 07:06:09;;;;;;;0.00;0.00;;;19.20;99.90;;;;;;5010865;28;20030;-77
2023/09/03 07:08:35;;;;;;;0.00;0.00;;;19.60;99.90;;;;;;5019891;28;20037;-77
2023/09/03 07:11:00;;;;;;;0.00;0.00;;;19.60;99.90;;;;;;5058145;28;20075;-76
2023/09/03 07:13:26;;;;;;;0.00;0.00;;;20.00;99.90;;;;;;5055670;28;20025;-78
2023/09/03 07:15:52;;;;;;;0.10;0.10;;;20.10;99.90;;;;;;5030656;28;20062;-76
2023/09/03 07:18:18;;;;;;;0.00;0.00;;;20.40;99.90;;;;;;5055713;28;20034;-78
2023/09/03 07:20:43;;;;;;;0.00;0.00;;;20.50;99.90;;;;;;5044456;28;20521;-77
2023/09/03 07:23:09;;;;;;;0.08;0.08;;;20.50;99.90;;;;;;5021132;28;20040;-75
2023/09/03 07:25:35;;;;;;;0.03;0.03;;;20.80;99.90;;;;;;5049510;28;20106;-75
2023/09/03 07:28:02;;;;;;;0.00;0.00;;;21.20;99.90;;;;;;5009909;28;20026;-76
2023/09/03 07:30:29;;;;;;;0.00;0.00;;;21.20;99.90;;;;;;5060930;28;20028;-77
2023/09/03 07:32:56;;;;;;;0.00;0.00;;;21.30;99.90;;;;;;5035811;28;20037;-76
2023/09/03 07:35:22;;;;;;;0.63;0.30;;;21.20;99.90;;;;;;5055471;28;20038;-77
2023/09/03 07:37:48;;;;;;;0.00;0.00;;;21.30;99.90;;;;;;5040817;28;20546;-77
2023/09/03 07:40:14;;;;;;;0.00;0.00;;;21.20;99.90;;;;;;5013337;28;20037;-78
2023/09/03 07:42:39;;;;;;;0.13;0.13;;;21.40;99.90;;;;;;5069102;28;20073;-76
2023/09/03 07:45:06;;;;;;;0.00;0.00;;;21.60;99.90;;;;;;5053950;28;20401;-77
2023/09/03 07:47:31;;;;;;;0.10;0.10;;;21.70;99.90;;;;;;5057879;28;20031;-77
2023/09/03 07:49:57;;;;;;;0.13;0.13;;;21.30;99.90;;;;;;5027889;28;20024;-76
2023/09/03 07:52:23;;;;;;;0.10;0.10;;;21.40;99.90;;;;;;5071760;28;20051;-77
2023/09/03 07:54:49;;;;;;;0.17;0.17;;;21.00;99.90;;;;;;5038276;27;20100;-78
2023/09/03 07:57:15;;;;;;;0.08;0.08;;;21.20;99.90;;;;;;5080539;28;20107;-77
2023/09/03 07:59:40;;;;;;;0.00;0.00;;;21.60;99.90;;;;;;5049658;28;20086;-76
2023/09/03 08:02:06;;;;;;;0.57;0.20;;;22.00;99.90;;;;;;5049507;28;20034;-78
2023/09/03 08:04:32;;;;;;;0.80;0.65;;;22.30;99.90;;;;;;5021014;28;20053;-78
2023/09/03 08:06:58;;;;;;;0.00;0.00;;;22.20;99.90;;;;;;5019388;28;20417;-76
2023/09/03 08:09:24;;;;;;;1.13;1.02;;;22.00;99.90;;;;;;5077147;28;20064;-77
2023/09/03 08:11:51;;;;;;;0.30;0.30;;;21.60;99.90;;;;;;5038912;28;20121;-77
2023/09/03 08:14:17;;;;;;;0.13;0.13;;;21.40;99.90;;;;;;5012663;28;20105;-77
2023/09/03 08:16:42;;;;;;;0.00;0.00;;;21.70;99.90;;;;;;5020729;28;20105;-77
2023/09/03 08:19:08;;;;;;;0.00;0.00;;;22.20;99.90;;;;;;5019454;28;20034;-77
2023/09/03 08:21:34;;;;;;;0.15;0.15;;;22.60;99.90;;;;;;5085999;28;20388;-77
2023/09/03 08:24:00;;;;;;;0.22;0.22;;;22.10;99.90;;;;;;5068800;28;20016;-76
2023/09/03 08:26:26;;;;;;;0.20;0.20;;;22.10;99.90;;;;;;5030668;28;20041;-77
2023/09/03 08:28:52;;;;;;;0.25;0.25;;;22.00;99.90;;;;;;5017731;28;20051;-78
2023/09/03 08:31:18;;;;;;;0.08;0.08;;;22.10;99.90;;;;;;5019126;28;20029;-77
2023/09/03 08:33:44;;;;;;;0.90;0.85;;;22.20;99.90;;;;;;5048936;28;20098;-77
2023/09/03 08:36:10;;;;;;;1.50;1.02;;;22.20;99.90;;;;;;5056294;28;20441;-76
2023/09/03 08:38:36;;;;;;;0.20;0.20;;;22.20;99.90;;;;;;5026583;28;20038;-77
2023/09/03 08:41:01;;;;;;;0.00;0.00;;;22.20;99.90;;;;;;5013378;28;20026;-74
2023/09/03 08:43:29;;;;;;;1.60;0.85;;;22.60;99.90;;;;;;5061240;28;20091;-75
2023/09/03 08:46:00;;;;;;;3.45;1.10;;;22.60;99.90;;;;;;5041669;28;20106;-74
2023/09/03 08:48:26;;;;;;;0.28;0.28;;;22.80;99.90;;;;;;5014567;28;20026;-77
2023/09/03 08:50:52;;;;;;;0.30;0.30;;;22.90;99.90;;;;;;5021760;28;20038;-74
2023/09/03 08:53:21;;;;;;;0.20;0.20;;;23.40;99.90;;;;;;5065414;28;20470;-73
2023/09/03 08:55:47;;;;;;;1.02;0.47;;;23.20;99.90;;;;;;5065183;28;20032;-76
2023/09/03 08:58:15;;;;;;;0.00;0.00;;;23.20;99.90;;;;;;5062661;28;20025;-74
2023/09/03 09:00:41;;;;;;;0.00;0.00;;;22.90;99.90;;;;;;5051561;28;20022;-74
2023/09/03 09:03:11;;;;;;;0.10;0.10;;;23.30;99.90;;;;;;5031063;28;20097;-74
2023/09/03 09:05:40;;;;;;;0.10;0.10;;;23.30;99.90;;;;;;5009964;28;20072;-78
2023/09/03 09:08:06;;;;;;;0.20;0.20;;;23.60;99.90;;;;;;5049879;28;20030;-77
2023/09/03 09:10:33;;;;;;;0.43;0.43;;;23.60;99.90;;;;;;5081786;28;20035;-74
2023/09/03 09:13:07;;;;;;;0.85;0.85;;;23.80;99.90;;;;;;5046839;28;20018;-73
2023/09/03 09:15:37;;;;;;;0.10;0.10;;;23.60;99.90;;;;;;5044500;28;20028;-74
2023/09/03 09:18:08;;;;;;;0.00;0.00;;;23.70;99.90;;;;;;5010099;28;20020;-74
2023/09/03 09:20:39;;;;;;;0.00;0.00;;;24.60;99.90;;;;;;5009614;28;20040;-74
2023/09/03 09:23:07;;;;;;;0.20;0.20;;;24.60;99.90;;;;;;5011224;28;20101;-72
2023/09/03 09:25:35;;;;;;;0.00;0.00;;;25.00;99.90;;;;;;5019540;28;20045;-72
2023/09/03 09:28:10;;;;;;;0.00;0.00;;;25.10;99.90;;;;;;5008350;28;20079;-74
2023/09/03 09:30:35;;;;;;;0.20;0.20;;;25.00;99.90;;;;;;5009217;28;20038;-74
2023/09/03 09:33:05;;;;;;;0.00;0.00;;;25.00;99.90;;;;;;5009571;28;20022;-74
2023/09/03 09:35:31;;;;;;;0.45;0.40;;;25.00;99.90;;;;;;5009675;28;20033;-75
2023/09/03 09:38:04;;;;;;;0.05;0.05;;;25.00;99.90;;;;;;5010121;28;20420;-74
2023/09/03 09:40:30;;;;;;;0.03;0.03;;;25.00;99.90;;;;;;5009759;28;20065;-74
2023/09/03 09:43:03;;;;;;;0.55;0.52;;;25.10;99.90;;;;;;5010270;28;20509;-74
2023/09/03 09:45:30;;;;;;;0.00;0.00;;;25.10;99.90;;;;;;5010796;28;20107;-74
2023/09/03 09:48:07;;;;;;;0.22;0.22;;;25.10;99.90;;;;;;5010799;28;20030;-75
2023/09/03 09:50:43;;;;;;;0.00;0.00;;;25.40;99.90;;;;;;5010603;28;20095;-75
2023/09/03 09:53:26;;;;;;;5.57;0.47;;;25.70;99.90;;;;;;5008824;28;20389;-74
2023/09/03 09:56:03;;;;;;;0.30;0.30;;;26.00;99.90;;;;;;5009741;28;20049;-75
2023/09/03 09:58:39;;;;;;;1.40;0.38;;;25.80;99.90;;;;;;5010779;28;20022;-75
2023/09/03 10:01:08;;;;;;;2.55;2.25;;;25.90;99.90;;;;;;5010371;28;20048;-74
2023/09/03 10:03:40;;;;;;;1.38;1.20;;;25.50;99.90;;;;;;5010365;28;20432;-73
2023/09/03 10:06:07;;;;;;;0.00;0.00;;;25.60;99.90;;;;;;5014464;28;20041;-75
2023/09/03 10:08:34;;;;;;;0.10;0.10;;;25.60;99.90;;;;;;5017313;28;20018;-73
2023/09/03 10:11:00;;;;;;;0.20;0.20;;;25.70;99.90;;;;;;5009820;28;20095;-74
2023/09/03 10:13:28;;;;;;;0.05;0.05;;;25.70;99.90;;;;;;5010639;28;20026;-76
2023/09/03 10:15:55;;;;;;;0.10;0.10;;;25.20;99.90;;;;;;5010087;28;20048;-75
2023/09/03 10:18:21;;;;;;;0.20;0.20;;;25.30;99.90;;;;;;5010582;28;20054;-75
2023/09/03 10:20:49;;;;;;;0.45;0.30;;;25.40;99.90;;;;;;5010608;28;20474;-73
2023/09/03 10:23:18;;;;;;;0.30;0.30;;;25.40;99.90;;;;;;5010319;28;20402;-74
2023/09/03 10:25:45;;;;;;;0.93;0.30;;;25.40;99.90;;;;;;5010016;28;20087;-75
2023/09/03 10:28:12;;;;;;;0.00;0.00;;;25.40;99.90;;;;;;5010242;28;20025;-75
2023/09/03 10:30:42;;;;;;;0.10;0.10;;;26.20;99.90;;;;;;5011106;28;20367;-78
2023/09/03 10:33:09;;;;;;;0.00;0.00;;;25.80;99.90;;;;;;5010068;28;20072;-80
2023/09/03 10:35:35;;;;;;;0.13;0.08;;;26.30;99.90;;;;;;5010272;28;20037;-80
2023/09/03 10:38:01;;;;;;;0.10;0.10;;;26.60;99.90;;;;;;5010131;28;20086;-80
2023/09/03 10:40:32;;;;;;;0.20;0.17;;;27.20;99.90;;;;;;5010106;28;20022;-80
2023/09/03 10:43:18;;;;;;;0.43;0.43;;;26.80;99.40;;;;;;5009882;28;20546;-80
2023/09/03 10:46:06;;;;;;;0.10;0.10;;;26.10;99.90;;;;;;5009913;28;20221;-80
2023/09/03 10:48:36;;;;;;;3.40;1.08;;;26.00;99.70;;;;;;5010391;28;20466;-80
2023/09/03 10:51:02;;;;;;;0.82;0.47;;;25.80;99.90;;;;;;5009967;28;20022;-79
2023/09/03 10:53:43;;;;;;;0.10;0.10;;;25.40;99.30;;;;;;5009784;28;20387;-79
2023/09/03 10:56:14;;;;;;;0.00;0.00;;;25.20;99.90;;;;;;5005453;28;20033;-79
2023/09/03 10:58:56;;;;;;;0.22;0.22;;;25.60;99.90;;;;;;5006082;28;20036;-80
2023/09/03 11:01:24;;;;;;;0.00;0.00;;;26.00;99.90;;;;;;5008786;28;20041;-80
2023/09/03 11:03:52;;;;;;;0.20;0.20;;;26.50;99.00;;;;;;5009583;28;20482;-79
2023/09/03 11:06:21;;;;;;;0.08;0.08;;;26.30;99.10;;;;;;5010170;28;20067;-80
2023/09/03 11:08:48;;;;;;;1.55;0.55;;;26.50;99.90;;;;;;5012904;28;20034;-79
2023/09/03 11:11:21;;;;;;;1.85;0.77;;;27.20;99.00;;;;;;5012009;28;20470;-79
2023/09/03 11:13:51;;;;;;;0.00;0.00;;;26.90;99.90;;;;;;5012927;28;20068;-79
2023/09/03 11:16:16;;;;;;;0.65;0.65;;;26.80;98.60;;;;;;5013022;28;20155;-80
2023/09/03 11:18:49;;;;;;;0.00;0.00;;;26.30;99.90;;;;;;5013278;28;20075;-80
2023/09/03 11:21:16;;;;;;;2.55;0.50;;;26.60;99.90;;;;;;4995027;28;20362;-81
2023/09/03 11:24:02;;;;;;;0.57;0.35;;;27.40;96.30;;;;;;5012892;28;20069;-79
2023/09/03 11:26:33;;;;;;;0.00;0.00;;;27.10;96.30;;;;;;5000348;28;20076;-80
2023/09/03 11:29:00;;;;;;;0.13;0.13;;;27.10;98.30;;;;;;5012861;28;20087;-80
2023/09/03 11:31:27;;;;;;;0.30;0.30;;;27.30;97.40;;;;;;5012817;28;20041;-79
2023/09/03 11:33:55;;;;;;;0.45;0.45;;;27.00;95.80;;;;;;5012954;28;20030;-79
2023/09/03 11:36:24;;;;;;;0.17;0.17;;;27.10;96.40;;;;;;5012865;28;20022;-80
2023/09/03 11:38:51;;;;;;;0.32;0.32;;;27.60;97.80;;;;;;5012621;28;20041;-79
2023/09/03 11:41:18;;;;;;;0.00;0.00;;;28.30;96.60;;;;;;5012550;28;20030;-75
2023/09/03 11:43:44;;;;;;;0.50;0.50;;;28.70;96.20;;;;;;5012595;28;20151;-74
2023/09/03 11:46:19;;;;;;;0.00;0.00;;;28.50;94.90;;;;;;5012641;28;20037;-76
2023/09/03 11:49:05;;;;;;;0.00;0.00;;;28.10;96.30;;;;;;5012905;28;20030;-75
2023/09/03 11:51:31;;;;;;;0.00;0.00;;;29.10;95.70;;;;;;5012448;28;20099;-79
2023/09/03 11:53:57;;;;;;;0.40;0.40;;;29.90;94.90;;;;;;5012385;28;20030;-75
2023/09/03 11:56:25;;;;;;;0.30;0.30;;;29.60;91.70;;;;;;5012545;28;20045;-77
2023/09/03 11:58:56;;;;;;;0.28;0.28;;;29.10;93.50;;;;;;5012320;28;20049;-75
2023/09/03 12:01:23;;;;;;;0.00;0.00;;;29.30;93.90;;;;;;5012403;28;20091;-76
2023/09/03 12:03:50;;;;;;;0.00;0.00;;;29.80;93.30;;;;;;5012418;28;20033;-78
2023/09/03 12:06:18;;;;;;;0.00;0.00;;;30.20;92.80;;;;;;5011861;28;20033;-74
2023/09/03 12:08:44;;;;;;;0.45;0.40;;;30.60;92.50;;;;;;5012387;28;20067;-75
2023/09/03 12:11:11;;;;;;;0.00;0.00;;;29.70;91.80;;;;;;5012299;28;20478;-75
2023/09/03 12:13:39;;;;;;;0.35;0.35;;;29.40;92.60;;;;;;5012075;28;20018;-76
2023/09/03 12:16:09;;;;;;;0.17;0.13;;;30.00;93.10;;;;;;5011952;28;20030;-75
2023/09/03 12:18:37;;;;;;;1.00;0.70;;;29.90;92.60;;;;;;5011872;28;20486;-75
2023/09/03 12:21:05;;;;;;;0.08;0.08;;;29.20;91.80;;;;;;5011660;28;20029;-75
2023/09/03 12:23:32;;;;;;;0.00;0.00;;;29.70;91.80;;;;;;5013028;28;20026;-74
2023/09/03 12:25:58;;;;;;;0.00;0.00;;;30.10;91.00;;;;;;5010614;28;20049;-75
2023/09/03 12:28:40;;;;;;;0.00;0.00;;;30.20;91.20;;;;;;5012052;28;20030;-74
2023/09/03 12:31:06;;;;;;;0.10;0.10;;;30.70;91.50;;;;;;5010682;28;20037;-76
2023/09/03 12:33:32;;;;;;;0.00;0.00;;;30.40;91.40;;;;;;5012220;28;20067;-75
2023/09/03 12:36:12;;;;;;;0.00;0.00;;;31.50;91.20;;;;;;5010442;28;20029;-76
2023/09/03 12:38:53;;;;;;;0.17;0.17;;;32.10;90.90;;;;;;5012150;28;20033;-75
2023/09/03 12:41:20;;;;;;;1.30;0.47;;;32.90;90.60;;;;;;5011730;28;20109;-75
2023/09/03 12:43:46;;;;;;;0.00;0.00;;;33.10;88.80;;;;;;5011855;28;20289;-76
2023/09/03 12:46:12;;;;;;;0.00;0.00;;;32.90;89.50;;;;;;5010201;28;20037;-75
2023/09/03 12:48:38;;;;;;;0.00;0.00;;;33.40;87.80;;;;;;5010764;28;20069;-76
2023/09/03 12:51:04;;;;;;;0.00;0.00;;;33.70;87.70;;;;;;5011507;28;20100;-75
2023/09/03 12:53:30;;;;;;;0.20;0.20;;;33.20;89.40;;;;;;5012119;28;20026;-76